sensor_id;sensor_type;location;lat;lon;timestamp;temperature;humidity
74171;DHT22;62526;50.948;6.590;2023-04-06T00:01:28;4.30;99.90
74171;DHT22;62526;50.948;6.590;2023-04-06T00:03:55;4.30;99.90
74171;DHT22;62526;50.948;6.590;2023-04-06T00:06:22;4.30;99.90
74171;DHT22;62526;50.948;6.590;2023-04-06T00:08:48;4.30;99.90
74171;DHT22;62526;50.948;6.590;2023-04-06T00:11:15;4.20;99.90
74171;DHT22;62526;50.948;6.590;2023-04-06T00:13:42;4.20;99.90
74171;DHT22;62526;50.948;6.590;2023-04-06T00:16:09;4.20;99.90
74171;DHT22;62526;50.948;6.590;2023-04-06T00:18:36;4.10;99.90
74171;DHT22;62526;50.948;6.590;2023-04-06T00:21:04;4.00;99.90
74171;DHT22;62526;50.948;6.590;2023-04-06T00:23:30;4.00;99.90
74171;DHT22;62526;50.948;6.590;2023-04-06T00:25:57;4.00;99.90
74171;DHT22;62526;50.948;6.590;2023-04-06T00:28:23;3.90;99.90
74171;DHT22;62526;50.948;6.590;2023-04-06T00:30:52;3.80;99.90
74171;DHT22;62526;50.948;6.590;2023-04-06T00:33:19;3.70;99.90
74171;DHT22;62526;50.948;6.590;2023-04-06T00:35:46;3.70;99.90
74171;DHT22;62526;50.948;6.590;2023-04-06T00:38:14;3.60;99.90
74171;DHT22;62526;50.948;6.590;2023-04-06T00:40:40;3.60;99.90
74171;DHT22;62526;50.948;6.590;2023-04-06T00:43:07;3.60;99.90
74171;DHT22;62526;50.948;6.590;2023-04-06T00:45:34;3.50;99.90
74171;DHT22;62526;50.948;6.590;2023-04-06T00:48:01;3.40;99.90
74171;DHT22;62526;50.948;6.590;2023-04-06T00:50:27;3.40;99.90
74171;DHT22;62526;50.948;6.590;2023-04-06T00:52:54;3.30;99.90
74171;DHT22;62526;50.948;6.590;2023-04-06T00:55:21;3.40;99.90
74171;DHT22;62526;50.948;6.590;2023-04-06T00:57:47;3.30;99.90
74171;DHT22;62526;50.948;6.590;2023-04-06T01:00:14;3.40;99.90
74171;DHT22;62526;50.948;6.590;2023-04-06T01:02:41;3.30;99.90
74171;DHT22;62526;50.948;6.590;2023-04-06T01:05:08;3.30;99.90
74171;DHT22;62526;50.948;6.590;2023-04-06T01:07:34;3.30;99.90
74171;DHT22;62526;50.948;6.590;2023-04-06T01:10:01;3.20;99.90
74171;DHT22;62526;50.948;6.590;2023-04-06T01:12:28;3.30;99.90
74171;DHT22;62526;50.948;6.590;2023-04-06T01:14:54;3.20;99.90
74171;DHT22;62526;50.948;6.590;2023-04-06T01:17:21;3.20;99.90
74171;DHT22;62526;50.948;6.590;2023-04-06T01:19:47;3.10;99.90
74171;DHT22;62526;50.948;6.590;2023-04-06T01:22:17;3.20;99.90
74171;DHT22;62526;50.948;6.590;2023-04-06T01:24:43;3.20;99.90
74171;DHT22;62526;50.948;6.590;2023-04-06T01:27:10;3.20;99.90
74171;DHT22;62526;50.948;6.590;2023-04-06T01:29:36;3.20;99.90
74171;DHT22;62526;50.948;6.590;2023-04-06T01:32:03;3.20;99.90
74171;DHT22;62526;50.948;6.590;2023-04-06T01:34:30;3.20;99.90
74171;DHT22;62526;50.948;6.590;2023-04-06T01:36:56;3.20;99.90
74171;DHT22;62526;50.948;6.590;2023-04-06T01:39:23;3.10;99.90
74171;DHT22;62526;50.948;6.590;2023-04-06T01:41:50;3.10;99.90
74171;DHT22;62526;50.948;6.590;2023-04-06T01:44:16;3.10;99.90
74171;DHT22;62526;50.948;6.590;2023-04-06T01:46:43;3.10;99.90
74171;DHT22;62526;50.948;6.590;2023-04-06T01:49:09;3.10;99.90
74171;DHT22;62526;50.948;6.590;2023-04-06T01:51:36;3.10;99.90
74171;DHT22;62526;50.948;6.590;2023-04-06T01:54:03;3.00;99.90
74171;DHT22;62526;50.948;6.590;2023-04-06T01:56:29;3.00;99.90
74171;DHT22;62526;50.948;6.590;2023-04-06T01:58:56;3.00;99.90
74171;DHT22;62526;50.948;6.590;2023-04-06T02:01:23;3.00;99.90
74171;DHT22;62526;50.948;6.590;2023-04-06T02:03:49;2.90;99.90
74171;DHT22;62526;50.948;6.590;2023-04-06T02:06:16;2.90;99.90
74171;DHT22;62526;50.948;6.590;2023-04-06T02:08:42;2.90;99.90
74171;DHT22;62526;50.948;6.590;2023-04-06T02:11:09;2.90;99.90
74171;DHT22;62526;50.948;6.590;2023-04-06T02:13:36;2.90;99.90
74171;DHT22;62526;50.948;6.590;2023-04-06T02:16:02;2.90;99.90
74171;DHT22;62526;50.948;6.590;2023-04-06T02:18:30;2.80;99.90
74171;DHT22;62526;50.948;6.590;2023-04-06T02:20:56;2.80;99.90
74171;DHT22;62526;50.948;6.590;2023-04-06T02:23:23;2.80;99.90
74171;DHT22;62526;50.948;6.590;2023-04-06T02:25:49;2.80;99.90
74171;DHT22;62526;50.948;6.590;2023-04-06T02:28:16;2.70;99.90
74171;DHT22;62526;50.948;6.590;2023-04-06T02:30:43;2.70;99.90
74171;DHT22;62526;50.948;6.590;2023-04-06T02:33:09;2.70;99.90
74171;DHT22;62526;50.948;6.590;2023-04-06T02:35:36;2.60;99.90
74171;DHT22;62526;50.948;6.590;2023-04-06T02:38:02;2.60;99.90
74171;DHT22;62526;50.948;6.590;2023-04-06T02:40:29;2.60;99.90
74171;DHT22;62526;50.948;6.590;2023-04-06T02:42:56;2.60;99.90
74171;DHT22;62526;50.948;6.590;2023-04-06T02:45:23;2.60;99.90
74171;DHT22;62526;50.948;6.590;2023-04-06T02:47:49;2.50;99.90
74171;DHT22;62526;50.948;6.590;2023-04-06T02:50:16;2.50;99.90
74171;DHT22;62526;50.948;6.590;2023-04-06T02:52:42;2.50;99.90
74171;DHT22;62526;50.948;6.590;2023-04-06T02:55:09;2.50;99.90
74171;DHT22;62526;50.948;6.590;2023-04-06T02:57:36;2.50;99.90
74171;DHT22;62526;50.948;6.590;2023-04-06T03:00:02;2.50;99.90
74171;DHT22;62526;50.948;6.590;2023-04-06T03:02:29;2.50;99.90
74171;DHT22;62526;50.948;6.590;2023-04-06T03:04:56;2.50;99.90
74171;DHT22;62526;50.948;6.590;2023-04-06T03:07:22;2.50;99.90
74171;DHT22;62526;50.948;6.590;2023-04-06T03:09:49;2.50;99.90
74171;DHT22;62526;50.948;6.590;2023-04-06T03:12:16;2.50;99.90
74171;DHT22;62526;50.948;6.590;2023-04-06T03:14:42;2.40;99.90
74171;DHT22;62526;50.948;6.590;2023-04-06T03:17:09;2.40;99.90
74171;DHT22;62526;50.948;6.590;2023-04-06T03:19:35;2.40;99.90
74171;DHT22;62526;50.948;6.590;2023-04-06T03:22:02;2.40;99.90
74171;DHT22;62526;50.948;6.590;2023-04-06T03:24:29;2.40;99.90
74171;DHT22;62526;50.948;6.590;2023-04-06T03:26:55;2.40;99.90
74171;DHT22;62526;50.948;6.590;2023-04-06T03:29:22;2.30;99.90
74171;DHT22;62526;50.948;6.590;2023-04-06T03:31:49;2.30;99.90
74171;DHT22;62526;50.948;6.590;2023-04-06T03:34:15;2.30;99.90
74171;DHT22;62526;50.948;6.590;2023-04-06T03:36:42;2.40;99.90
74171;DHT22;62526;50.948;6.590;2023-04-06T03:39:08;2.30;99.90
74171;DHT22;62526;50.948;6.590;2023-04-06T03:41:35;2.30;99.90
74171;DHT22;62526;50.948;6.590;2023-04-06T03:44:02;2.30;99.90
74171;DHT22;62526;50.948;6.590;2023-04-06T03:46:28;2.30;99.90
74171;DHT22;62526;50.948;6.590;2023-04-06T03:48:55;2.30;99.90
74171;DHT22;62526;50.948;6.590;2023-04-06T03:51:21;2.20;99.90
74171;DHT22;62526;50.948;6.590;2023-04-06T03:53:48;2.20;99.90
74171;DHT22;62526;50.948;6.590;2023-04-06T03:56:15;2.20;99.90
74171;DHT22;62526;50.948;6.590;2023-04-06T03:58:41;2.20;99.90
74171;DHT22;62526;50.948;6.590;2023-04-06T04:01:08;2.40;99.90
74171;DHT22;62526;50.948;6.590;2023-04-06T04:03:35;2.20;99.90
74171;DHT22;62526;50.948;6.590;2023-04-06T04:06:01;2.20;99.90
74171;DHT22;62526;50.948;6.590;2023-04-06T04:08:28;2.20;99.90
74171;DHT22;62526;50.948;6.590;2023-04-06T04:10:54;2.20;99.90
74171;DHT22;62526;50.948;6.590;2023-04-06T04:13:21;2.20;99.90
74171;DHT22;62526;50.948;6.590;2023-04-06T04:15:48;2.20;99.90
74171;DHT22;62526;50.948;6.590;2023-04-06T04:18:14;2.20;99.90
74171;DHT22;62526;50.948;6.590;2023-04-06T04:20:41;2.20;99.90
74171;DHT22;62526;50.948;6.590;2023-04-06T04:23:07;2.20;99.90
74171;DHT22;62526;50.948;6.590;2023-04-06T04:25:34;2.20;99.90
74171;DHT22;62526;50.948;6.590;2023-04-06T04:28:01;2.30;99.90
74171;DHT22;62526;50.948;6.590;2023-04-06T04:30:27;2.30;99.90
74171;DHT22;62526;50.948;6.590;2023-04-06T04:32:54;2.40;99.90
74171;DHT22;62526;50.948;6.590;2023-04-06T04:35:20;2.40;99.90
74171;DHT22;62526;50.948;6.590;2023-04-06T04:37:47;2.30;99.90
74171;DHT22;62526;50.948;6.590;2023-04-06T04:40:14;2.40;99.90
74171;DHT22;62526;50.948;6.590;2023-04-06T04:42:40;2.40;99.90
74171;DHT22;62526;50.948;6.590;2023-04-06T04:45:07;2.40;99.90
74171;DHT22;62526;50.948;6.590;2023-04-06T04:47:34;2.40;99.90
74171;DHT22;62526;50.948;6.590;2023-04-06T04:50:01;2.30;99.90
74171;DHT22;62526;50.948;6.590;2023-04-06T04:52:28;2.30;99.90
74171;DHT22;62526;50.948;6.590;2023-04-06T04:54:55;2.30;99.90
74171;DHT22;62526;50.948;6.590;2023-04-06T04:57:22;2.30;99.90
74171;DHT22;62526;50.948;6.590;2023-04-06T04:59:48;2.40;99.90
74171;DHT22;62526;50.948;6.590;2023-04-06T05:02:15;2.40;99.90
74171;DHT22;62526;50.948;6.590;2023-04-06T05:04:41;2.40;99.90
74171;DHT22;62526;50.948;6.590;2023-04-06T05:07:08;2.50;99.90
74171;DHT22;62526;50.948;6.590;2023-04-06T05:09:35;2.50;99.90
74171;DHT22;62526;50.948;6.590;2023-04-06T05:12:01;2.50;99.90
74171;DHT22;62526;50.948;6.590;2023-04-06T05:14:28;2.50;99.90
74171;DHT22;62526;50.948;6.590;2023-04-06T05:16:54;2.60;99.90
74171;DHT22;62526;50.948;6.590;2023-04-06T05:19:21;2.60;99.90
74171;DHT22;62526;50.948;6.590;2023-04-06T05:21:48;2.60;99.90
74171;DHT22;62526;50.948;6.590;2023-04-06T05:24:14;2.70;99.90
74171;DHT22;62526;50.948;6.590;2023-04-06T05:26:41;2.70;99.90
74171;DHT22;62526;50.948;6.590;2023-04-06T05:29:07;2.80;99.90
74171;DHT22;62526;50.948;6.590;2023-04-06T05:31:34;2.80;99.90
74171;DHT22;62526;50.948;6.590;2023-04-06T05:34:10;2.90;99.90
74171;DHT22;62526;50.948;6.590;2023-04-06T05:36:36;2.90;99.90
74171;DHT22;62526;50.948;6.590;2023-04-06T05:39:03;3.00;99.90
74171;DHT22;62526;50.948;6.590;2023-04-06T05:41:29;3.10;99.90
74171;DHT22;62526;50.948;6.590;2023-04-06T05:43:56;3.10;99.90
74171;DHT22;62526;50.948;6.590;2023-04-06T05:46:23;3.20;99.90
74171;DHT22;62526;50.948;6.590;2023-04-06T05:48:49;3.30;99.90
74171;DHT22;62526;50.948;6.590;2023-04-06T05:51:16;3.40;99.90
74171;DHT22;62526;50.948;6.590;2023-04-06T05:53:42;3.40;99.90
74171;DHT22;62526;50.948;6.590;2023-04-06T05:56:09;3.50;99.90
74171;DHT22;62526;50.948;6.590;2023-04-06T05:58:36;3.60;99.90
74171;DHT22;62526;50.948;6.590;2023-04-06T06:01:02;3.60;99.90
74171;DHT22;62526;50.948;6.590;2023-04-06T06:03:29;3.70;99.90
74171;DHT22;62526;50.948;6.590;2023-04-06T06:06:01;3.70;99.90
74171;DHT22;62526;50.948;6.590;2023-04-06T06:08:27;3.80;99.90
74171;DHT22;62526;50.948;6.590;2023-04-06T06:10:53;3.90;99.90
74171;DHT22;62526;50.948;6.590;2023-04-06T06:13:20;4.00;99.90
74171;DHT22;62526;50.948;6.590;2023-04-06T06:15:47;4.10;99.90
74171;DHT22;62526;50.948;6.590;2023-04-06T06:18:14;4.20;99.90
74171;DHT22;62526;50.948;6.590;2023-04-06T06:20:41;4.30;99.90
74171;DHT22;62526;50.948;6.590;2023-04-06T06:23:07;4.40;99.90
74171;DHT22;62526;50.948;6.590;2023-04-06T06:25:34;4.60;99.90
74171;DHT22;62526;50.948;6.590;2023-04-06T06:28:00;4.70;99.90
74171;DHT22;62526;50.948;6.590;2023-04-06T06:30:27;4.80;99.90
74171;DHT22;62526;50.948;6.590;2023-04-06T06:32:54;4.90;99.90
74171;DHT22;62526;50.948;6.590;2023-04-06T06:35:20;5.00;99.90
74171;DHT22;62526;50.948;6.590;2023-04-06T06:37:47;5.10;99.90
74171;DHT22;62526;50.948;6.590;2023-04-06T06:40:13;5.20;99.90
74171;DHT22;62526;50.948;6.590;2023-04-06T06:42:40;5.30;99.90
74171;DHT22;62526;50.948;6.590;2023-04-06T06:45:07;5.40;99.90
74171;DHT22;62526;50.948;6.590;2023-04-06T06:47:34;5.60;99.90
74171;DHT22;62526;50.948;6.590;2023-04-06T06:50:01;5.70;99.90
74171;DHT22;62526;50.948;6.590;2023-04-06T06:52:28;5.80;99.90
74171;DHT22;62526;50.948;6.590;2023-04-06T06:54:55;5.90;99.90
74171;DHT22;62526;50.948;6.590;2023-04-06T06:57:21;6.10;99.90
74171;DHT22;62526;50.948;6.590;2023-04-06T06:59:48;6.10;99.90
74171;DHT22;62526;50.948;6.590;2023-04-06T07:02:15;6.20;99.90
74171;DHT22;62526;50.948;6.590;2023-04-06T07:04:41;6.30;99.90
74171;DHT22;62526;50.948;6.590;2023-04-06T07:07:08;6.30;99.90
74171;DHT22;62526;50.948;6.590;2023-04-06T07:09:35;6.40;99.90
74171;DHT22;62526;50.948;6.590;2023-04-06T07:12:04;6.40;99.90
74171;DHT22;62526;50.948;6.590;2023-04-06T07:14:31;6.50;99.90
74171;DHT22;62526;50.948;6.590;2023-04-06T07:16:57;6.50;99.90
74171;DHT22;62526;50.948;6.590;2023-04-06T07:19:25;6.60;99.90
74171;DHT22;62526;50.948;6.590;2023-04-06T07:21:52;6.70;99.90
74171;DHT22;62526;50.948;6.590;2023-04-06T07:24:19;6.90;99.90
74171;DHT22;62526;50.948;6.590;2023-04-06T07:26:46;7.10;99.90
74171;DHT22;62526;50.948;6.590;2023-04-06T07:29:12;7.20;99.90
74171;DHT22;62526;50.948;6.590;2023-04-06T07:31:39;7.40;99.90
74171;DHT22;62526;50.948;6.590;2023-04-06T07:36:50;7.70;99.90
74171;DHT22;62526;50.948;6.590;2023-04-06T07:39:17;8.00;99.90
74171;DHT22;62526;50.948;6.590;2023-04-06T07:41:44;8.10;99.90
74171;DHT22;62526;50.948;6.590;2023-04-06T07:44:10;8.30;99.90
74171;DHT22;62526;50.948;6.590;2023-04-06T07:46:38;8.40;99.90
74171;DHT22;62526;50.948;6.590;2023-04-06T07:49:06;8.60;99.90
74171;DHT22;62526;50.948;6.590;2023-04-06T07:51:33;8.70;99.90
74171;DHT22;62526;50.948;6.590;2023-04-06T07:54:00;8.80;99.90
74171;DHT22;62526;50.948;6.590;2023-04-06T07:56:27;8.90;99.90
74171;DHT22;62526;50.948;6.590;2023-04-06T07:58:54;9.10;99.90
74171;DHT22;62526;50.948;6.590;2023-04-06T08:01:21;9.20;99.90
74171;DHT22;62526;50.948;6.590;2023-04-06T08:03:48;9.30;99.90
74171;DHT22;62526;50.948;6.590;2023-04-06T08:06:16;9.40;99.90
74171;DHT22;62526;50.948;6.590;2023-04-06T08:08:42;9.50;99.90
74171;DHT22;62526;50.948;6.590;2023-04-06T08:11:12;9.70;99.90
74171;DHT22;62526;50.948;6.590;2023-04-06T08:13:40;9.80;99.90
74171;DHT22;62526;50.948;6.590;2023-04-06T08:16:07;9.90;99.90
74171;DHT22;62526;50.948;6.590;2023-04-06T08:18:34;10.10;99.90
74171;DHT22;62526;50.948;6.590;2023-04-06T08:21:02;10.10;99.90
74171;DHT22;62526;50.948;6.590;2023-04-06T08:23:29;10.20;99.90
74171;DHT22;62526;50.948;6.590;2023-04-06T08:25:55;10.30;99.90
74171;DHT22;62526;50.948;6.590;2023-04-06T08:28:22;10.50;99.90
74171;DHT22;62526;50.948;6.590;2023-04-06T08:30:49;10.60;99.90
74171;DHT22;62526;50.948;6.590;2023-04-06T08:33:16;10.80;99.90
74171;DHT22;62526;50.948;6.590;2023-04-06T08:35:43;10.90;99.90
74171;DHT22;62526;50.948;6.590;2023-04-06T08:38:09;11.10;99.90
74171;DHT22;62526;50.948;6.590;2023-04-06T08:40:38;11.20;99.90
74171;DHT22;62526;50.948;6.590;2023-04-06T08:43:06;11.30;99.90
74171;DHT22;62526;50.948;6.590;2023-04-06T08:45:32;11.40;99.90
74171;DHT22;62526;50.948;6.590;2023-04-06T08:47:59;11.50;99.90
74171;DHT22;62526;50.948;6.590;2023-04-06T08:50:26;11.60;99.90
74171;DHT22;62526;50.948;6.590;2023-04-06T08:52:52;11.70;99.90
74171;DHT22;62526;50.948;6.590;2023-04-06T08:55:20;11.80;99.90
74171;DHT22;62526;50.948;6.590;2023-04-06T08:57:46;11.90;99.90
74171;DHT22;62526;50.948;6.590;2023-04-06T09:00:14;12.10;99.90
74171;DHT22;62526;50.948;6.590;2023-04-06T09:02:42;12.10;99.90
74171;DHT22;62526;50.948;6.590;2023-04-06T09:05:11;12.20;99.90
74171;DHT22;62526;50.948;6.590;2023-04-06T09:07:40;12.30;99.90
74171;DHT22;62526;50.948;6.590;2023-04-06T09:10:09;12.40;99.90
74171;DHT22;62526;50.948;6.590;2023-04-06T09:12:37;12.50;99.90
74171;DHT22;62526;50.948;6.590;2023-04-06T09:15:06;12.50;99.90
74171;DHT22;62526;50.948;6.590;2023-04-06T09:17:34;12.60;99.90
74171;DHT22;62526;50.948;6.590;2023-04-06T09:20:04;12.60;99.90
74171;DHT22;62526;50.948;6.590;2023-04-06T09:22:38;12.70;99.90
74171;DHT22;62526;50.948;6.590;2023-04-06T09:25:08;12.80;99.90
74171;DHT22;62526;50.948;6.590;2023-04-06T09:27:37;12.90;99.90
74171;DHT22;62526;50.948;6.590;2023-04-06T09:30:09;13.00;99.90
74171;DHT22;62526;50.948;6.590;2023-04-06T09:32:44;13.10;99.90
74171;DHT22;62526;50.948;6.590;2023-04-06T09:35:12;13.20;99.90
74171;DHT22;62526;50.948;6.590;2023-04-06T09:37:43;13.30;99.90
74171;DHT22;62526;50.948;6.590;2023-04-06T09:40:13;13.40;99.90
74171;DHT22;62526;50.948;6.590;2023-04-06T09:42:45;13.60;99.90
74171;DHT22;62526;50.948;6.590;2023-04-06T09:45:11;13.80;99.90
74171;DHT22;62526;50.948;6.590;2023-04-06T09:47:38;14.00;99.50
74171;DHT22;62526;50.948;6.590;2023-04-06T09:50:05;14.10;98.90
74171;DHT22;62526;50.948;6.590;2023-04-06T09:52:33;14.30;98.10
74171;DHT22;62526;50.948;6.590;2023-04-06T09:55:01;14.40;96.80
74171;DHT22;62526;50.948;6.590;2023-04-06T09:57:31;14.40;98.30
74171;DHT22;62526;50.948;6.590;2023-04-06T10:00:06;14.50;98.20
74171;DHT22;62526;50.948;6.590;2023-04-06T10:02:57;14.60;97.40
74171;DHT22;62526;50.948;6.590;2023-04-06T10:05:37;14.70;96.90
74171;DHT22;62526;50.948;6.590;2023-04-06T10:10:58;15.00;95.90
74171;DHT22;62526;50.948;6.590;2023-04-06T10:13:27;15.10;92.90
74171;DHT22;62526;50.948;6.590;2023-04-06T10:15:54;15.10;92.60
74171;DHT22;62526;50.948;6.590;2023-04-06T10:18:21;15.10;87.80
74171;DHT22;62526;50.948;6.590;2023-04-06T10:20:50;15.20;80.50
74171;DHT22;62526;50.948;6.590;2023-04-06T10:23:23;15.30;77.10
74171;DHT22;62526;50.948;6.590;2023-04-06T10:25:53;15.30;80.60
74171;DHT22;62526;50.948;6.590;2023-04-06T10:28:19;15.20;71.00
74171;DHT22;62526;50.948;6.590;2023-04-06T10:30:45;14.80;72.00
74171;DHT22;62526;50.948;6.590;2023-04-06T10:33:17;15.00;76.80
74171;DHT22;62526;50.948;6.590;2023-04-06T10:35:42;14.80;65.00
74171;DHT22;62526;50.948;6.590;2023-04-06T10:38:09;14.60;62.50
74171;DHT22;62526;50.948;6.590;2023-04-06T10:40:36;14.60;68.40
74171;DHT22;62526;50.948;6.590;2023-04-06T10:43:08;14.90;68.50
74171;DHT22;62526;50.948;6.590;2023-04-06T10:45:34;15.10;70.10
74171;DHT22;62526;50.948;6.590;2023-04-06T10:48:00;15.00;65.20
74171;DHT22;62526;50.948;6.590;2023-04-06T10:50:27;15.20;64.30
74171;DHT22;62526;50.948;6.590;2023-04-06T10:53:00;15.10;59.00
74171;DHT22;62526;50.948;6.590;2023-04-06T10:55:27;14.70;62.10
74171;DHT22;62526;50.948;6.590;2023-04-06T10:57:53;14.80;59.50
74171;DHT22;62526;50.948;6.590;2023-04-06T11:00:21;14.70;59.10
74171;DHT22;62526;50.948;6.590;2023-04-06T11:02:47;14.00;60.30
74171;DHT22;62526;50.948;6.590;2023-04-06T11:05:14;14.20;67.20
74171;DHT22;62526;50.948;6.590;2023-04-06T11:07:40;14.30;69.00
74171;DHT22;62526;50.948;6.590;2023-04-06T11:10:08;14.70;61.10
74171;DHT22;62526;50.948;6.590;2023-04-06T11:12:34;14.60;62.20
74171;DHT22;62526;50.948;6.590;2023-04-06T11:15:03;14.60;59.60
74171;DHT22;62526;50.948;6.590;2023-04-06T11:17:41;14.70;60.80
74171;DHT22;62526;50.948;6.590;2023-04-06T11:25:50;15.10;58.10
74171;DHT22;62526;50.948;6.590;2023-04-06T11:28:11;14.80;57.90
74171;DHT22;62526;50.948;6.590;2023-04-06T11:30:38;15.10;60.00
74171;DHT22;62526;50.948;6.590;2023-04-06T11:33:05;14.80;57.00
74171;DHT22;62526;50.948;6.590;2023-04-06T11:35:33;14.70;57.30
74171;DHT22;62526;50.948;6.590;2023-04-06T11:38:02;14.50;58.80
74171;DHT22;62526;50.948;6.590;2023-04-06T11:40:27;14.70;60.10
74171;DHT22;62526;50.948;6.590;2023-04-06T11:42:55;14.30;63.00
74171;DHT22;62526;50.948;6.590;2023-04-06T11:45:26;14.30;63.00
74171;DHT22;62526;50.948;6.590;2023-04-06T11:50:41;14.20;66.10
74171;DHT22;62526;50.948;6.590;2023-04-06T11:53:08;14.20;65.60
74171;DHT22;62526;50.948;6.590;2023-04-06T11:55:40;14.40;65.00
74171;DHT22;62526;50.948;6.590;2023-04-06T11:58:09;14.40;66.20
74171;DHT22;62526;50.948;6.590;2023-04-06T12:00:36;13.90;66.50
74171;DHT22;62526;50.948;6.590;2023-04-06T12:03:06;14.20;68.00
74171;DHT22;62526;50.948;6.590;2023-04-06T12:05:38;14.30;64.70
74171;DHT22;62526;50.948;6.590;2023-04-06T12:08:06;14.40;70.00
74171;DHT22;62526;50.948;6.590;2023-04-06T12:10:34;14.40;69.80
74171;DHT22;62526;50.948;6.590;2023-04-06T12:13:09;14.60;70.80
74171;DHT22;62526;50.948;6.590;2023-04-06T12:15:39;14.80;70.20
74171;DHT22;62526;50.948;6.590;2023-04-06T12:29:24;14.70;77.80
74171;DHT22;62526;50.948;6.590;2023-04-06T12:32:03;15.00;72.90
74171;DHT22;62526;50.948;6.590;2023-04-06T17:14:29;9.10;99.90
74171;DHT22;62526;50.948;6.590;2023-04-06T17:17:09;9.20;99.90
74171;DHT22;62526;50.948;6.590;2023-04-06T17:19:38;9.20;99.90
74171;DHT22;62526;50.948;6.590;2023-04-06T18:50:52;8.30;99.90
74171;DHT22;62526;50.948;6.590;2023-04-06T19:01:39;8.30;99.90
74171;DHT22;62526;50.948;6.590;2023-04-06T19:04:06;8.30;99.90
74171;DHT22;62526;50.948;6.590;2023-04-06T19:06:33;8.30;99.90
74171;DHT22;62526;50.948;6.590;2023-04-06T19:09:20;8.30;99.90
74171;DHT22;62526;50.948;6.590;2023-04-06T19:17:20;8.20;99.90
74171;DHT22;62526;50.948;6.590;2023-04-06T19:39:08;8.30;99.90
74171;DHT22;62526;50.948;6.590;2023-04-06T19:50:03;8.30;99.90
74171;DHT22;62526;50.948;6.590;2023-04-06T19:52:30;8.30;99.90
74171;DHT22;62526;50.948;6.590;2023-04-06T20:06:14;8.40;99.90
74171;DHT22;62526;50.948;6.590;2023-04-06T20:14:08;8.40;99.90
74171;DHT22;62526;50.948;6.590;2023-04-06T20:16:39;8.40;99.90
74171;DHT22;62526;50.948;6.590;2023-04-06T20:19:10;8.40;99.90
74171;DHT22;62526;50.948;6.590;2023-04-06T20:24:30;8.40;99.90
74171;DHT22;62526;50.948;6.590;2023-04-06T20:26:58;8.40;99.90
74171;DHT22;62526;50.948;6.590;2023-04-06T20:37:53;8.40;99.90
74171;DHT22;62526;50.948;6.590;2023-04-06T20:40:20;8.40;99.90
74171;DHT22;62526;50.948;6.590;2023-04-06T20:51:17;8.50;99.90
74171;DHT22;62526;50.948;6.590;2023-04-06T21:24:14;8.70;99.90
74171;DHT22;62526;50.948;6.590;2023-04-06T23:00:48;9.30;99.90
74171;DHT22;62526;50.948;6.590;2023-04-06T23:06:07;9.30;99.90
74171;DHT22;62526;50.948;6.590;2023-04-06T23:08:35;9.30;99.90
74171;DHT22;62526;50.948;6.590;2023-04-06T23:11:08;9.30;99.90
74171;DHT22;62526;50.948;6.590;2023-04-06T23:16:17;9.40;99.90
74171;DHT22;62526;50.948;6.590;2023-04-06T23:18:49;9.30;99.90
74171;DHT22;62526;50.948;6.590;2023-04-06T23:24:09;9.40;99.90
74171;DHT22;62526;50.948;6.590;2023-04-06T23:26:37;9.30;99.90
74171;DHT22;62526;50.948;6.590;2023-04-06T23:29:04;9.40;99.90
